createdAt,value
2019-03-06T00:01:29.132Z,5.30
2019-03-06T00:03:59.135Z,5.20
2019-03-06T00:06:29.083Z,5.40
2019-03-06T00:08:59.105Z,5.10
2019-03-06T00:11:29.042Z,4.90
2019-03-06T00:13:59.081Z,5.30
2019-03-06T00:16:28.989Z,5.30
2019-03-06T00:18:58.951Z,5.20
2019-03-06T00:21:29.144Z,5.10
2019-03-06T00:23:59.095Z,5.10
2019-03-06T00:26:32.137Z,5.30
2019-03-06T00:29:02.064Z,4.90
2019-03-06T00:31:32.138Z,5.00
2019-03-06T00:34:02.072Z,5.20
2019-03-06T00:36:32.706Z,5.20
2019-03-06T00:39:02.831Z,5.40
2019-03-06T00:41:35.769Z,5.50
2019-03-06T00:44:05.726Z,5.50
2019-03-06T00:46:35.734Z,5.40
2019-03-06T00:49:05.707Z,5.40
2019-03-06T00:51:35.674Z,5.30
2019-03-06T00:54:05.624Z,5.20
2019-03-06T00:56:35.631Z,5.00
2019-03-06T00:59:05.581Z,5.00
2019-03-06T01:01:35.530Z,4.40
2019-03-06T01:04:05.830Z,4.40
2019-03-06T01:06:35.953Z,4.50
2019-03-06T01:09:06.771Z,4.20
2019-03-06T01:11:36.688Z,4.20
2019-03-06T01:14:06.629Z,4.30
2019-03-06T01:16:36.640Z,4.20
2019-03-06T01:19:06.521Z,4.60
2019-03-06T01:21:36.544Z,4.70
2019-03-06T01:24:06.496Z,4.70
2019-03-06T01:26:36.525Z,4.60
2019-03-06T01:29:06.856Z,4.50
2019-03-06T01:31:36.869Z,4.50
2019-03-06T01:34:17.996Z,4.40
2019-03-06T01:36:55.013Z,4.40
2019-03-06T01:39:44.812Z,4.10
2019-03-06T01:42:21.344Z,4.00
2019-03-06T01:44:57.754Z,4.10
2019-03-06T01:47:27.883Z,4.00
2019-03-06T01:49:59.518Z,4.10
2019-03-06T01:52:29.438Z,4.20
2019-03-06T01:54:59.718Z,4.20
2019-03-06T01:57:29.738Z,4.30
2019-03-06T01:59:59.691Z,4.20
2019-03-06T02:02:29.946Z,4.20
2019-03-06T02:04:59.867Z,4.30
2019-03-06T02:07:30.170Z,4.40
2019-03-06T02:10:00.169Z,4.30
2019-03-06T02:12:30.308Z,4.30
2019-03-06T02:15:00.354Z,4.50
2019-03-06T02:17:30.316Z,4.50
2019-03-06T02:20:00.326Z,4.30
2019-03-06T02:22:30.345Z,4.60
2019-03-06T02:25:00.356Z,4.30
2019-03-06T02:27:30.390Z,4.30
2019-03-06T02:30:00.678Z,4.10
2019-03-06T02:32:30.633Z,4.10
2019-03-06T02:35:00.593Z,4.40
2019-03-06T02:37:30.609Z,4.60
2019-03-06T02:40:00.610Z,4.40
2019-03-06T02:42:30.855Z,4.00
2019-03-06T02:45:00.842Z,4.00
2019-03-06T02:47:30.949Z,4.00
2019-03-06T02:50:00.985Z,4.00
2019-03-06T02:52:30.931Z,4.20
2019-03-06T02:55:00.840Z,4.30
2019-03-06T02:57:30.911Z,4.50
2019-03-06T03:00:09.218Z,4.40
2019-03-06T03:02:48.455Z,4.40
2019-03-06T03:05:31.134Z,4.60
2019-03-06T03:08:01.095Z,4.60
2019-03-06T03:10:31.194Z,4.50
2019-03-06T03:13:01.504Z,4.50
2019-03-06T03:15:31.416Z,4.20
2019-03-06T03:18:01.431Z,4.50
2019-03-06T03:20:32.565Z,4.50
2019-03-06T03:23:02.463Z,4.50
2019-03-06T03:25:32.619Z,4.60
2019-03-06T03:28:02.656Z,4.60
2019-03-06T03:30:32.720Z,4.70
2019-03-06T03:33:02.841Z,4.40
2019-03-06T03:35:32.767Z,4.70
2019-03-06T03:38:02.847Z,4.80
2019-03-06T03:40:32.825Z,4.70
2019-03-06T03:43:02.870Z,4.70
2019-03-06T03:45:32.858Z,4.70
2019-03-06T03:48:02.927Z,4.60
2019-03-06T03:50:32.984Z,4.60
2019-03-06T03:53:02.947Z,4.60
2019-03-06T03:55:33.051Z,4.60
2019-03-06T03:58:03.005Z,4.50
2019-03-06T04:00:33.021Z,4.40
2019-03-06T04:03:03.017Z,4.50
2019-03-06T04:05:33.042Z,4.40
2019-03-06T04:08:03.146Z,4.10
2019-03-06T04:10:33.130Z,4.40
2019-03-06T04:13:03.104Z,4.40
2019-03-06T04:15:33.097Z,4.40
2019-03-06T04:18:03.180Z,4.30
2019-03-06T04:20:33.078Z,4.30
2019-03-06T04:23:03.034Z,4.30
2019-03-06T04:25:33.046Z,4.30
2019-03-06T04:28:03.022Z,4.30
2019-03-06T04:30:33.027Z,4.20
2019-03-06T04:33:02.981Z,4.20
2019-03-06T04:35:32.903Z,4.20
2019-03-06T04:38:03.212Z,4.10
2019-03-06T04:40:33.167Z,4.10
2019-03-06T04:43:03.126Z,4.10
2019-03-06T04:45:33.070Z,4.00
2019-03-06T04:48:03.145Z,4.00
2019-03-06T04:50:33.050Z,4.00
2019-03-06T04:53:02.984Z,4.00
2019-03-06T04:55:32.892Z,4.20
2019-03-06T04:58:02.841Z,4.30
2019-03-06T05:00:32.910Z,4.40
2019-03-06T05:03:02.989Z,4.40
2019-03-06T05:05:32.999Z,4.40
2019-03-06T05:08:03.026Z,4.30
2019-03-06T05:10:32.956Z,4.40
2019-03-06T05:13:03.112Z,4.40
2019-03-06T05:15:33.040Z,4.40
2019-03-06T05:18:34.090Z,4.50
2019-03-06T05:21:04.091Z,4.50
2019-03-06T05:23:34.039Z,4.40
2019-03-06T05:26:03.961Z,4.40
2019-03-06T05:28:34.353Z,4.40
2019-03-06T05:31:04.604Z,4.40
2019-03-06T05:33:34.572Z,4.50
2019-03-06T05:36:32.162Z,4.50
2019-03-06T05:39:12.107Z,4.50
2019-03-06T05:41:42.020Z,4.50
2019-03-06T05:44:12.052Z,4.50
2019-03-06T05:46:41.976Z,4.60
2019-03-06T05:49:12.250Z,4.60
2019-03-06T05:51:42.245Z,4.60
2019-03-06T05:54:12.210Z,4.60
2019-03-06T05:56:42.473Z,4.70
2019-03-06T05:59:12.435Z,4.80
2019-03-06T06:01:42.445Z,4.80
2019-03-06T06:04:12.397Z,4.80
2019-03-06T06:06:42.560Z,4.90
2019-03-06T06:09:12.676Z,4.90
2019-03-06T06:11:42.928Z,4.90
2019-03-06T06:14:12.855Z,4.90
2019-03-06T06:16:42.781Z,4.90
2019-03-06T06:19:12.810Z,5.00
2019-03-06T06:22:10.824Z,4.90
2019-03-06T06:24:40.853Z,4.90
2019-03-06T06:27:10.763Z,4.90
2019-03-06T06:29:40.786Z,4.80
2019-03-06T06:32:10.804Z,4.70
2019-03-06T06:34:40.832Z,4.80
2019-03-06T06:37:10.808Z,4.80
2019-03-06T06:39:40.753Z,4.80
2019-03-06T06:42:11.154Z,4.80
2019-03-06T06:44:41.226Z,4.90
2019-03-06T06:47:11.221Z,4.90
2019-03-06T06:49:41.315Z,5.00
2019-03-06T06:53:14.213Z,5.00
2019-03-06T06:56:13.466Z,5.10
2019-03-06T06:59:32.886Z,5.10
2019-03-06T07:02:46.397Z,5.20
2019-03-06T07:05:47.589Z,5.20
2019-03-06T07:08:36.573Z,5.20
2019-03-06T07:11:24.274Z,5.10
2019-03-06T07:14:19.912Z,5.20
2019-03-06T07:17:02.856Z,5.20
2019-03-06T07:19:54.791Z,5.20
2019-03-06T07:22:33.250Z,5.30
2019-03-06T07:25:19.877Z,5.30
2019-03-06T07:28:18.879Z,5.40
2019-03-06T07:31:10.925Z,5.40
2019-03-06T07:34:03.087Z,5.30
2019-03-06T07:36:50.882Z,5.50
2019-03-06T07:39:23.989Z,5.60
2019-03-06T07:42:16.073Z,5.70
2019-03-06T07:45:57.328Z,5.80
2019-03-06T07:48:47.435Z,5.70
2019-03-06T07:51:41.773Z,5.80
2019-03-06T07:54:43.102Z,5.80
2019-03-06T07:57:38.212Z,5.80
2019-03-06T08:00:13.976Z,5.90
2019-03-06T08:03:08.993Z,6.00
2019-03-06T08:05:39.003Z,6.00
2019-03-06T08:08:08.921Z,6.00
2019-03-06T08:10:39.976Z,6.20
2019-03-06T08:13:23.460Z,6.30
2019-03-06T08:16:08.354Z,6.30
2019-03-06T08:18:44.914Z,6.30
2019-03-06T08:21:52.154Z,6.50
2019-03-06T08:24:39.742Z,6.60
2019-03-06T08:27:09.765Z,6.50
2019-03-06T08:29:39.882Z,6.50
2019-03-06T08:32:16.255Z,7.00
2019-03-06T08:34:46.207Z,6.60
2019-03-06T08:37:17.552Z,6.60
2019-03-06T08:39:47.581Z,6.60
2019-03-06T08:42:19.011Z,6.60
2019-03-06T08:44:48.924Z,6.60
2019-03-06T08:47:36.828Z,6.50
2019-03-06T08:50:17.156Z,6.60
2019-03-06T08:53:06.154Z,6.70
2019-03-06T08:55:47.503Z,6.80
2019-03-06T08:58:36.508Z,6.90
2019-03-06T09:01:33.136Z,7.10
2019-03-06T09:04:13.891Z,7.30
2019-03-06T09:07:01.754Z,7.40
2019-03-06T09:10:06.357Z,7.50
2019-03-06T09:12:44.994Z,7.40
2019-03-06T09:15:32.740Z,7.70
2019-03-06T09:18:21.597Z,7.80
2019-03-06T09:21:00.718Z,8.00
2019-03-06T09:23:45.070Z,8.00
2019-03-06T09:26:34.070Z,8.10
2019-03-06T09:29:25.654Z,8.30
2019-03-06T09:32:11.268Z,8.60
2019-03-06T09:34:59.010Z,8.80
2019-03-06T09:38:11.005Z,8.90
2019-03-06T09:40:57.036Z,9.00
2019-03-06T09:43:36.314Z,9.30
2019-03-06T09:46:20.737Z,9.40
2019-03-06T09:49:00.206Z,9.50
2019-03-06T09:51:36.747Z,9.30
2019-03-06T09:54:24.500Z,9.30
2019-03-06T09:57:12.903Z,9.50
2019-03-06T10:00:10.595Z,9.30
2019-03-06T10:02:50.877Z,9.30
2019-03-06T10:05:37.481Z,9.60
2019-03-06T10:08:25.576Z,9.40
2019-03-06T10:11:20.524Z,9.30
2019-03-06T10:14:02.454Z,9.30
2019-03-06T10:17:03.551Z,9.30
2019-03-06T10:19:41.058Z,9.40
2019-03-06T10:22:11.049Z,9.50
2019-03-06T10:24:41.161Z,9.60
2019-03-06T10:27:12.007Z,9.30
2019-03-06T10:29:41.925Z,9.40
2019-03-06T10:32:11.919Z,9.40
2019-03-06T10:34:42.553Z,9.50
2019-03-06T10:37:13.162Z,9.30
2019-03-06T10:39:43.474Z,9.30
2019-03-06T10:42:13.380Z,9.50
2019-03-06T10:44:43.707Z,9.60
2019-03-06T10:47:13.666Z,9.50
2019-03-06T10:49:43.616Z,9.70
2019-03-06T10:52:13.603Z,9.70
2019-03-06T10:54:44.871Z,9.80
2019-03-06T10:57:15.098Z,9.90
2019-03-06T10:59:45.134Z,9.90
2019-03-06T11:02:15.177Z,10.00
2019-03-06T11:04:52.214Z,10.30
2019-03-06T11:07:22.159Z,10.30
2019-03-06T11:09:52.208Z,10.40
2019-03-06T11:12:22.216Z,10.50
2019-03-06T11:14:52.230Z,10.60
2019-03-06T11:17:22.166Z,10.60
2019-03-06T11:19:52.498Z,10.60
2019-03-06T11:22:22.430Z,10.60
2019-03-06T11:24:52.450Z,10.60
2019-03-06T11:27:22.373Z,10.60
2019-03-06T11:29:52.330Z,10.70
2019-03-06T11:32:22.334Z,10.60
2019-03-06T11:34:52.293Z,10.60
2019-03-06T11:37:22.412Z,10.70
2019-03-06T11:39:52.345Z,10.80
2019-03-06T11:42:22.340Z,10.70
2019-03-06T11:44:52.379Z,10.80
2019-03-06T11:47:22.509Z,10.80
2019-03-06T11:49:52.467Z,10.80
2019-03-06T11:52:22.558Z,10.90
2019-03-06T11:54:52.702Z,10.90
2019-03-06T11:57:22.630Z,11.00
2019-03-06T11:59:52.630Z,10.90
2019-03-06T12:02:22.850Z,10.90
2019-03-06T12:04:52.809Z,11.00
2019-03-06T12:07:22.804Z,11.10
2019-03-06T12:09:53.047Z,11.20
2019-03-06T12:12:22.979Z,11.40
2019-03-06T12:14:53.022Z,11.40
2019-03-06T12:17:22.943Z,11.40
2019-03-06T12:19:52.901Z,11.50
2019-03-06T12:22:23.020Z,11.40
2019-03-06T12:24:53.013Z,11.40
2019-03-06T12:27:22.930Z,11.30
2019-03-06T12:29:53.049Z,11.30
2019-03-06T12:32:22.961Z,11.40
2019-03-06T12:34:52.985Z,11.40
2019-03-06T12:37:23.104Z,11.40
2019-03-06T12:39:53.050Z,11.50
2019-03-06T12:42:23.304Z,11.50
2019-03-06T12:44:53.365Z,11.70
2019-03-06T12:47:23.375Z,11.80
2019-03-06T12:49:54.075Z,11.90
2019-03-06T12:52:24.073Z,11.90
2019-03-06T12:54:54.198Z,11.90
2019-03-06T12:57:24.270Z,12.00
2019-03-06T12:59:54.263Z,12.00
2019-03-06T13:02:25.846Z,12.10
2019-03-06T13:04:55.843Z,12.00
2019-03-06T13:07:25.874Z,12.00
2019-03-06T13:09:55.874Z,12.10
2019-03-06T13:12:25.894Z,12.10
2019-03-06T13:14:55.830Z,12.10
2019-03-06T13:17:25.789Z,12.10
2019-03-06T13:19:55.712Z,12.10
2019-03-06T13:22:26.106Z,12.10
2019-03-06T13:24:56.173Z,12.20
2019-03-06T13:27:26.323Z,12.10
2019-03-06T13:29:56.261Z,12.10
2019-03-06T13:32:31.275Z,12.00
2019-03-06T13:35:04.004Z,12.10
2019-03-06T13:37:34.132Z,12.10
2019-03-06T13:40:04.380Z,12.10
2019-03-06T13:42:34.433Z,12.10
2019-03-06T13:45:04.455Z,12.20
2019-03-06T13:47:34.420Z,12.20
2019-03-06T13:50:04.575Z,12.30
2019-03-06T13:52:34.518Z,12.10
2019-03-06T13:55:05.310Z,12.00
2019-03-06T13:57:35.334Z,12.00
2019-03-06T14:00:06.716Z,11.90
2019-03-06T14:02:37.343Z,11.90
2019-03-06T14:05:07.534Z,11.90
2019-03-06T14:07:37.871Z,11.80
2019-03-06T14:10:08.138Z,11.80
2019-03-06T14:12:38.128Z,11.80
2019-03-06T14:15:08.156Z,11.80
2019-03-06T14:17:38.265Z,11.70
2019-03-06T14:20:08.557Z,11.60
2019-03-06T14:22:38.608Z,11.70
2019-03-06T14:25:08.621Z,11.70
2019-03-06T14:27:38.571Z,11.70
2019-03-06T14:30:09.998Z,11.70
2019-03-06T14:32:39.973Z,11.70
2019-03-06T14:35:09.886Z,11.70
2019-03-06T14:37:39.929Z,11.70
2019-03-06T14:40:20.409Z,11.70
2019-03-06T14:42:50.346Z,11.70
2019-03-06T14:45:20.263Z,11.80
2019-03-06T14:47:50.223Z,11.80
2019-03-06T14:50:20.224Z,11.90
2019-03-06T14:52:50.260Z,11.90
2019-03-06T14:55:20.756Z,11.80
2019-03-06T14:57:50.772Z,11.90
2019-03-06T15:00:21.123Z,11.90
2019-03-06T15:02:51.050Z,12.00
2019-03-06T15:05:21.364Z,12.10
2019-03-06T15:07:51.300Z,12.10
2019-03-06T15:10:21.317Z,12.20
2019-03-06T15:12:51.274Z,12.10
2019-03-06T15:15:21.197Z,12.10
2019-03-06T15:17:51.219Z,12.10
2019-03-06T15:20:21.163Z,12.20
2019-03-06T15:22:51.167Z,12.10
2019-03-06T15:25:21.746Z,12.20
2019-03-06T15:27:51.699Z,12.10
2019-03-06T15:30:21.661Z,12.10
2019-03-06T15:32:51.616Z,12.10
2019-03-06T15:35:21.748Z,12.00
2019-03-06T15:37:51.886Z,11.80
2019-03-06T15:40:23.852Z,11.60
2019-03-06T15:42:53.818Z,11.50
2019-03-06T15:45:26.907Z,11.40
2019-03-06T15:47:57.165Z,11.40
2019-03-06T15:50:28.227Z,11.40
2019-03-06T15:52:58.178Z,11.40
2019-03-06T15:55:28.132Z,11.40
2019-03-06T15:57:58.068Z,11.40
2019-03-06T16:00:35.050Z,11.40
2019-03-06T16:03:06.263Z,11.40
2019-03-06T16:05:36.756Z,11.40
2019-03-06T16:08:08.359Z,11.50
2019-03-06T16:10:38.356Z,11.60
2019-03-06T16:13:08.545Z,11.60
2019-03-06T16:15:38.491Z,11.60
2019-03-06T16:18:08.797Z,11.60
2019-03-06T16:20:40.337Z,11.70
2019-03-06T16:23:10.365Z,11.70
2019-03-06T16:25:40.758Z,11.70
2019-03-06T16:28:10.722Z,11.70
2019-03-06T16:30:40.687Z,11.70
2019-03-06T16:33:10.730Z,11.70
2019-03-06T16:35:40.761Z,11.70
2019-03-06T16:38:10.732Z,11.80
2019-03-06T16:40:40.725Z,11.70
2019-03-06T16:43:10.762Z,11.70
2019-03-06T16:45:40.702Z,11.80
2019-03-06T16:48:10.642Z,11.80
2019-03-06T16:50:40.612Z,11.80
2019-03-06T16:53:10.769Z,11.80
2019-03-06T16:55:40.872Z,11.90
2019-03-06T16:58:10.875Z,11.90
2019-03-06T17:00:40.837Z,11.90
2019-03-06T17:03:10.903Z,11.90
2019-03-06T17:05:41.060Z,11.90
2019-03-06T17:08:11.002Z,11.90
2019-03-06T17:10:40.946Z,11.90
2019-03-06T17:13:10.965Z,11.90
2019-03-06T17:15:41.277Z,11.90
2019-03-06T17:18:11.181Z,12.00
2019-03-06T17:20:41.312Z,11.90
2019-03-06T17:23:11.312Z,12.00
2019-03-06T17:25:41.330Z,12.00
2019-03-06T17:28:11.355Z,12.00
2019-03-06T17:30:41.632Z,12.00
2019-03-06T17:33:12.161Z,12.00
2019-03-06T17:35:42.119Z,11.90
2019-03-06T17:38:12.090Z,11.90
2019-03-06T17:40:42.104Z,11.90
2019-03-06T17:43:12.319Z,12.00
2019-03-06T17:45:42.712Z,11.90
2019-03-06T17:48:12.951Z,11.80
2019-03-06T17:50:42.881Z,11.80
2019-03-06T17:53:12.968Z,11.60
2019-03-06T17:55:43.191Z,11.40
2019-03-06T17:58:13.126Z,11.10
2019-03-06T18:00:46.009Z,11.00
2019-03-06T18:03:19.094Z,10.90
2019-03-06T18:05:50.647Z,11.20
2019-03-06T18:08:21.892Z,11.40
2019-03-06T18:10:51.987Z,11.20
2019-03-06T18:13:22.066Z,10.90
2019-03-06T18:15:52.047Z,10.90
2019-03-06T18:18:22.143Z,10.70
2019-03-06T18:20:52.170Z,10.70
2019-03-06T18:23:22.460Z,10.50
2019-03-06T18:25:53.134Z,10.30
2019-03-06T18:28:23.072Z,10.50
2019-03-06T18:30:53.581Z,10.60
2019-03-06T18:33:23.598Z,10.50
2019-03-06T18:35:53.575Z,10.40
2019-03-06T18:38:23.873Z,10.40
2019-03-06T18:40:54.147Z,10.40
2019-03-06T18:43:26.603Z,10.30
2019-03-06T18:45:56.957Z,10.40
2019-03-06T18:48:30.035Z,10.50
2019-03-06T18:51:00.234Z,10.20
2019-03-06T18:53:30.256Z,10.20
2019-03-06T18:56:00.356Z,10.30
2019-03-06T18:58:31.599Z,10.40
2019-03-06T19:01:01.537Z,10.40
2019-03-06T19:03:31.579Z,10.20
2019-03-06T19:06:01.755Z,9.90
2019-03-06T19:08:31.843Z,10.10
2019-03-06T19:11:01.884Z,9.90
2019-03-06T19:13:31.813Z,9.60
2019-03-06T19:16:01.809Z,9.70
2019-03-06T19:18:31.884Z,9.80
2019-03-06T19:21:02.008Z,9.90
2019-03-06T19:23:31.997Z,10.00
2019-03-06T19:26:01.942Z,9.90
2019-03-06T19:28:31.997Z,9.90
2019-03-06T19:31:02.035Z,9.90
2019-03-06T19:33:32.261Z,9.80
2019-03-06T19:36:02.558Z,9.70
2019-03-06T19:38:34.781Z,9.60
2019-03-06T19:41:04.823Z,9.40
2019-03-06T19:43:34.726Z,9.20
2019-03-06T19:46:04.826Z,9.20
2019-03-06T19:48:35.584Z,9.30
2019-03-06T19:51:05.586Z,9.10
2019-03-06T19:53:35.583Z,9.50
2019-03-06T19:56:05.968Z,9.60
2019-03-06T19:58:35.921Z,9.70
2019-03-06T20:01:06.289Z,9.70
2019-03-06T20:03:36.298Z,9.80
2019-03-06T20:06:06.249Z,9.90
2019-03-06T20:08:36.249Z,9.90
2019-03-06T20:11:06.409Z,9.70
2019-03-06T20:13:36.960Z,9.80
2019-03-06T20:16:07.393Z,9.70
2019-03-06T20:18:37.711Z,9.50
2019-03-06T20:21:08.109Z,9.50
2019-03-06T20:23:38.327Z,9.30
2019-03-06T20:26:13.779Z,9.40
2019-03-06T20:28:40.634Z,9.70
2019-03-06T20:31:10.563Z,9.60
2019-03-06T20:33:40.811Z,9.40
2019-03-06T20:36:10.754Z,9.60
2019-03-06T20:38:40.800Z,9.50
2019-03-06T20:41:11.139Z,9.40
2019-03-06T20:43:41.092Z,9.30
2019-03-06T20:46:11.202Z,9.60
2019-03-06T20:48:41.269Z,9.60
2019-03-06T20:51:11.226Z,9.50
2019-03-06T20:53:41.281Z,9.40
2019-03-06T20:56:11.324Z,9.50
2019-03-06T20:58:41.479Z,9.50
2019-03-06T21:01:11.463Z,9.40
2019-03-06T21:06:10.806Z,9.70
2019-03-06T21:08:40.870Z,9.50
2019-03-06T21:11:10.854Z,9.40
2019-03-06T21:13:40.931Z,9.40
2019-03-06T21:16:10.947Z,9.50
2019-03-06T21:18:41.088Z,9.60
2019-03-06T21:21:11.000Z,9.60
2019-03-06T21:23:41.273Z,9.50
2019-03-06T21:26:11.309Z,10.10
2019-03-06T21:28:41.440Z,9.60
2019-03-06T21:31:11.565Z,9.60
2019-03-06T21:33:41.855Z,9.80
2019-03-06T21:36:12.830Z,9.60
2019-03-06T21:38:43.479Z,9.70
2019-03-06T21:41:13.407Z,9.70
2019-03-06T21:43:43.327Z,9.70
2019-03-06T21:46:13.217Z,9.70
2019-03-06T21:48:43.136Z,9.80
2019-03-06T21:51:13.036Z,10.20
2019-03-06T21:53:42.996Z,10.30
2019-03-06T21:56:12.899Z,10.30
2019-03-06T21:58:43.016Z,10.30
2019-03-06T22:01:13.237Z,10.30
2019-03-06T22:03:43.219Z,10.50
2019-03-06T22:06:13.226Z,10.50
2019-03-06T22:08:43.323Z,10.50
2019-03-06T22:11:13.392Z,10.60
2019-03-06T22:13:43.426Z,10.50
2019-03-06T22:16:13.432Z,10.80
2019-03-06T22:18:43.408Z,10.90
2019-03-06T22:21:13.343Z,11.10
2019-03-06T22:23:43.306Z,11.10
2019-03-06T22:26:13.194Z,10.60
2019-03-06T22:28:43.460Z,10.50
2019-03-06T22:31:13.381Z,10.50
2019-03-06T22:33:43.430Z,10.90
2019-03-06T22:36:13.434Z,10.70
2019-03-06T22:38:43.388Z,10.60
2019-03-06T22:41:13.343Z,10.90
2019-03-06T22:43:43.513Z,11.10
2019-03-06T22:46:13.442Z,11.20
2019-03-06T22:48:43.388Z,11.10
2019-03-06T22:51:13.419Z,11.00
2019-03-06T22:53:43.323Z,11.20
2019-03-06T22:58:42.794Z,11.40
2019-03-06T23:01:19.608Z,11.40
2019-03-06T23:03:49.537Z,11.50
2019-03-06T23:06:19.646Z,11.40
2019-03-06T23:08:51.454Z,11.50
2019-03-06T23:11:23.280Z,11.40
2019-03-06T23:13:53.257Z,11.10
2019-03-06T23:16:23.383Z,11.30
2019-03-06T23:18:53.476Z,11.60
2019-03-06T23:21:23.605Z,11.60
2019-03-06T23:23:53.626Z,11.90
2019-03-06T23:26:23.566Z,11.90
2019-03-06T23:28:53.565Z,11.90
2019-03-06T23:31:23.583Z,11.90
2019-03-06T23:33:53.502Z,11.80
2019-03-06T23:36:23.568Z,11.70
2019-03-06T23:38:53.550Z,11.70
2019-03-06T23:41:23.485Z,11.50
2019-03-06T23:43:53.414Z,11.40
2019-03-06T23:46:23.491Z,11.50
2019-03-06T23:48:53.662Z,11.30
2019-03-06T23:51:28.634Z,11.30
2019-03-06T23:59:00.022Z,11.20
